createdAt,value
2022-07-27T00:01:21.914Z,96370.88
2022-07-27T00:03:54.073Z,96372.53
2022-07-27T00:06:22.727Z,96367.41
2022-07-27T00:08:51.579Z,96363.66
2022-07-27T00:11:21.194Z,96360.91
2022-07-27T00:13:50.112Z,96356.72
2022-07-27T00:16:18.567Z,96357.84
2022-07-27T00:18:47.009Z,96359.16
2022-07-27T00:21:16.691Z,96355.41
2022-07-27T00:23:45.446Z,96353.78
2022-07-27T00:26:13.875Z,96353.97
2022-07-27T00:28:42.608Z,96350.38
2022-07-27T00:31:11.029Z,96349.91
2022-07-27T00:33:39.835Z,96353.56
2022-07-27T00:36:08.503Z,96346.22
2022-07-27T00:41:28.728Z,96339.59
2022-07-27T00:43:58.885Z,96335.09
2022-07-27T00:46:28.798Z,96343.03
2022-07-27T00:48:57.672Z,96341.41
2022-07-27T00:51:27.279Z,96338.09
2022-07-27T00:53:58.577Z,96338.19
2022-07-27T00:56:27.049Z,96337.38
2022-07-27T00:58:58.606Z,96331.66
2022-07-27T01:01:27.000Z,96328.38
2022-07-27T01:03:57.023Z,96326.03
2022-07-27T01:06:27.467Z,96329.94
2022-07-27T01:09:33.394Z,96330.44
2022-07-27T01:12:01.935Z,96327.19
2022-07-27T01:14:31.571Z,96326.69
2022-07-27T01:17:00.485Z,96323.13
2022-07-27T01:19:29.367Z,96325.16
2022-07-27T01:21:59.155Z,96313.75
2022-07-27T01:24:28.395Z,96319.75
2022-07-27T01:26:57.398Z,96315.38
2022-07-27T01:29:26.121Z,96321.50
2022-07-27T01:31:55.675Z,96313.03
2022-07-27T01:34:24.285Z,96315.59
2022-07-27T01:36:53.064Z,96317.66
2022-07-27T01:39:22.867Z,96309.19
2022-07-27T01:41:51.960Z,96307.88
2022-07-27T01:44:20.812Z,96300.53
2022-07-27T01:46:49.819Z,96303.41
2022-07-27T01:49:18.762Z,96299.53
2022-07-27T01:51:47.306Z,96294.03
2022-07-27T01:54:16.505Z,96289.66
2022-07-27T01:56:46.214Z,96288.13
2022-07-27T01:59:17.334Z,96275.41
2022-07-27T02:01:46.107Z,96273.66
2022-07-27T02:04:14.754Z,96272.94
2022-07-27T02:06:43.196Z,96281.50
2022-07-27T02:09:12.420Z,96272.44
2022-07-27T02:11:59.330Z,96273.56
2022-07-27T02:14:29.681Z,96266.13
2022-07-27T02:16:58.744Z,96269.91
2022-07-27T02:19:28.298Z,96269.06
2022-07-27T02:21:57.303Z,96268.25
2022-07-27T02:24:25.663Z,96270.19
2022-07-27T02:26:54.332Z,96263.06
2022-07-27T02:29:22.789Z,96264.50
2022-07-27T02:31:52.888Z,96266.22
2022-07-27T02:34:21.233Z,96263.56
2022-07-27T02:36:50.599Z,96268.84
2022-07-27T02:39:18.957Z,96264.56
2022-07-27T02:41:49.587Z,96263.44
2022-07-27T02:44:18.543Z,96269.16
2022-07-27T02:46:47.066Z,96265.91
2022-07-27T02:49:17.721Z,96267.72
2022-07-27T02:51:50.382Z,96270.47
2022-07-27T02:54:19.326Z,96274.84
2022-07-27T02:56:47.779Z,96275.16
2022-07-27T02:59:18.566Z,96279.34
2022-07-27T03:01:47.802Z,96277.72
2022-07-27T03:04:19.517Z,96279.13
2022-07-27T03:06:47.952Z,96279.53
2022-07-27T03:09:17.308Z,96278.44
2022-07-27T03:11:45.783Z,96284.44
2022-07-27T03:14:14.177Z,96289.84
2022-07-27T03:16:44.468Z,96292.47
2022-07-27T03:19:13.618Z,96294.50
2022-07-27T03:21:44.994Z,96305.59
2022-07-27T03:24:13.365Z,96298.25
2022-07-27T03:26:42.046Z,96298.25
2022-07-27T03:29:10.718Z,96299.56
2022-07-27T03:31:39.553Z,96299.19
2022-07-27T03:34:09.805Z,96300.41
2022-07-27T03:36:38.290Z,96300.81
2022-07-27T03:39:09.031Z,96294.78
2022-07-27T03:41:37.636Z,96300.81
2022-07-27T03:44:06.940Z,96294.38
2022-07-27T03:46:35.284Z,96295.50
2022-07-27T03:49:14.447Z,96302.22
2022-07-27T03:51:44.175Z,96299.19
2022-07-27T03:54:15.078Z,96293.97
2022-07-27T03:56:43.395Z,96301.94
2022-07-27T03:59:12.607Z,96303.75
2022-07-27T04:01:41.430Z,96296.84
2022-07-27T04:04:10.291Z,96298.84
2022-07-27T04:06:38.732Z,96296.81
2022-07-27T04:09:09.138Z,96298.22
2022-07-27T04:11:50.418Z,96279.78
2022-07-27T04:14:19.896Z,96290.38
2022-07-27T04:16:48.897Z,96286.44
2022-07-27T04:19:17.261Z,96281.03
2022-07-27T04:21:46.451Z,96275.78
2022-07-27T04:24:14.910Z,96281.69
2022-07-27T04:26:45.089Z,96285.16
2022-07-27T04:29:19.933Z,96278.72
2022-07-27T04:31:49.704Z,96271.09
2022-07-27T04:34:18.147Z,96276.50
2022-07-27T04:36:47.241Z,96275.16
2022-07-27T04:39:15.714Z,96271.91
2022-07-27T04:41:47.536Z,96266.50
2022-07-27T04:44:16.167Z,96276.69
2022-07-27T04:46:44.620Z,96268.53
2022-07-27T04:49:13.892Z,96285.44
2022-07-27T04:51:44.156Z,96282.91
2022-07-27T04:54:13.829Z,96277.53
2022-07-27T04:56:42.209Z,96282.44
2022-07-27T04:59:12.656Z,96292.59
2022-07-27T05:01:41.452Z,96292.59
2022-07-27T05:04:10.411Z,96299.13
2022-07-27T05:06:38.778Z,96297.81
2022-07-27T05:09:07.662Z,96302.19
2022-07-27T05:11:36.059Z,96296.88
2022-07-27T05:14:05.328Z,96302.47
2022-07-27T05:16:35.062Z,96309.50
2022-07-27T05:19:04.317Z,96300.03
2022-07-27T05:21:32.814Z,96309.09
2022-07-27T05:24:01.626Z,96316.94
2022-07-27T05:26:30.093Z,96322.84
2022-07-27T05:28:58.796Z,96325.50
2022-07-27T05:31:27.221Z,96326.31
2022-07-27T05:33:58.361Z,96318.22
2022-07-27T05:36:27.049Z,96319.75
2022-07-27T05:38:56.195Z,96311.19
2022-07-27T05:41:25.670Z,96323.72
2022-07-27T05:43:55.559Z,96323.31
2022-07-27T05:46:25.601Z,96341.34
2022-07-27T05:48:57.360Z,96342.38
2022-07-27T05:51:26.704Z,96340.94
2022-07-27T05:53:55.135Z,96343.38
2022-07-27T05:56:24.239Z,96340.03
2022-07-27T05:58:52.789Z,96338.59
2022-07-27T06:01:22.326Z,96343.28
2022-07-27T06:03:50.819Z,96345.94
2022-07-27T06:06:38.042Z,96344.66
2022-07-27T06:09:06.845Z,96355.66
2022-07-27T06:11:37.188Z,96361.56
2022-07-27T06:14:05.627Z,96352.88
2022-07-27T06:16:34.845Z,96351.84
2022-07-27T06:19:03.431Z,96346.72
2022-07-27T06:21:33.134Z,96343.53
2022-07-27T06:24:01.452Z,96346.28
2022-07-27T06:26:30.495Z,96347.97
2022-07-27T06:29:01.216Z,96342.81
2022-07-27T06:34:20.932Z,96339.53
2022-07-27T06:36:52.935Z,96336.94
2022-07-27T06:39:21.647Z,96344.13
2022-07-27T06:41:51.823Z,96343.53
2022-07-27T06:44:24.212Z,96349.78
2022-07-27T06:46:52.671Z,96355.00
2022-07-27T06:49:21.388Z,96348.53
2022-07-27T06:51:51.426Z,96355.88
2022-07-27T06:54:20.571Z,96354.41
2022-07-27T06:56:49.200Z,96357.03
2022-07-27T06:59:17.619Z,96345.38
2022-07-27T07:01:48.764Z,96354.34
2022-07-27T07:04:18.263Z,96359.22
2022-07-27T07:06:54.774Z,96369.47
2022-07-27T07:09:23.105Z,96359.75
2022-07-27T07:11:51.700Z,96361.53
2022-07-27T07:14:20.632Z,96353.75
2022-07-27T07:16:49.126Z,96366.25
2022-07-27T07:19:18.102Z,96363.84
2022-07-27T07:21:46.754Z,96358.66
2022-07-27T07:24:17.053Z,96357.22
2022-07-27T07:26:46.215Z,96352.50
2022-07-27T07:29:16.663Z,96353.03
2022-07-27T07:31:45.123Z,96355.13
2022-07-27T07:34:14.129Z,96345.41
2022-07-27T07:36:42.551Z,96348.31
2022-07-27T07:39:11.794Z,96349.31
2022-07-27T07:41:41.945Z,96346.88
2022-07-27T07:44:11.035Z,96330.63
2022-07-27T07:46:42.765Z,96347.19
2022-07-27T07:49:16.258Z,96346.88
2022-07-27T07:51:45.076Z,96351.25
2022-07-27T07:54:13.675Z,96349.78
2022-07-27T07:56:43.348Z,96346.34
2022-07-27T07:59:12.494Z,96344.59
2022-07-27T08:01:41.337Z,96338.53
2022-07-27T08:04:10.333Z,96354.81
2022-07-27T08:06:40.141Z,96351.84
2022-07-27T08:09:09.441Z,96350.69
2022-07-27T08:11:38.949Z,96353.97
2022-07-27T08:14:09.221Z,96348.09
2022-07-27T08:16:37.635Z,96350.72
2022-07-27T08:19:09.335Z,96353.94
2022-07-27T08:21:37.997Z,96352.28
2022-07-27T08:24:07.621Z,96351.41
2022-07-27T08:26:36.181Z,96355.59
2022-07-27T08:29:11.207Z,96353.66
2022-07-27T08:31:52.397Z,96352.97
2022-07-27T08:34:21.877Z,96357.31
2022-07-27T08:36:50.293Z,96360.41
2022-07-27T08:40:05.670Z,96358.47
2022-07-27T08:42:11.255Z,96364.81
2022-07-27T08:44:41.590Z,96356.66
2022-07-27T08:47:11.983Z,96359.03
2022-07-27T08:49:43.863Z,96358.66
2022-07-27T08:52:13.732Z,96357.63
2022-07-27T08:54:42.984Z,96357.19
2022-07-27T08:57:11.343Z,96342.91
2022-07-27T08:59:39.700Z,96357.44
2022-07-27T09:02:14.306Z,96356.81
2022-07-27T09:04:43.199Z,96352.34
2022-07-27T09:07:11.558Z,96353.06
2022-07-27T09:09:46.324Z,96362.22
2022-07-27T09:12:14.744Z,96363.13
2022-07-27T09:14:47.549Z,96352.94
2022-07-27T09:20:18.435Z,96359.81
2022-07-27T09:22:50.767Z,96359.38
2022-07-27T09:25:44.870Z,96362.66
2022-07-27T09:28:10.427Z,96352.56
2022-07-27T09:30:43.742Z,96351.03
2022-07-27T09:33:16.503Z,96364.84
2022-07-27T09:35:46.515Z,96366.06
2022-07-27T09:38:19.165Z,96361.38
2022-07-27T09:40:50.316Z,96363.34
2022-07-27T09:46:08.776Z,96365.13
2022-07-27T09:48:38.682Z,96364.38
2022-07-27T09:51:55.761Z,96361.94
2022-07-27T09:54:00.752Z,96367.31
2022-07-27T09:56:31.960Z,96369.00
2022-07-27T09:59:01.567Z,96362.81
2022-07-27T10:01:33.414Z,96373.59
2022-07-27T10:04:05.605Z,96372.38
2022-07-27T10:07:00.402Z,96369.72
2022-07-27T10:09:24.655Z,96370.56
2022-07-27T10:11:53.884Z,96373.81
2022-07-27T10:14:22.315Z,96372.19
2022-07-27T10:16:51.551Z,96375.28
2022-07-27T10:19:27.166Z,96371.41
2022-07-27T10:21:55.526Z,96373.50
2022-07-27T10:24:27.019Z,96373.78
2022-07-27T10:26:56.112Z,96373.88
2022-07-27T10:29:26.236Z,96376.31
2022-07-27T10:32:00.286Z,96370.84
2022-07-27T10:34:38.898Z,96370.13
2022-07-27T10:37:13.111Z,96376.03
2022-07-27T10:39:44.333Z,96375.47
2022-07-27T10:42:30.396Z,96382.81
2022-07-27T10:45:06.089Z,96379.34
2022-07-27T10:47:37.797Z,96376.81
2022-07-27T10:50:38.088Z,96380.31
2022-07-27T10:53:11.348Z,96381.75
2022-07-27T10:55:51.666Z,96379.72
2022-07-27T10:58:45.588Z,96375.47
2022-07-27T11:01:15.457Z,96383.06
2022-07-27T11:03:52.386Z,96377.13
2022-07-27T11:06:35.021Z,96370.38
2022-07-27T11:12:00.566Z,96370.25
2022-07-27T11:14:31.512Z,96368.41
2022-07-27T11:17:32.306Z,96370.22
2022-07-27T11:19:54.822Z,96375.72
2022-07-27T11:23:09.102Z,96375.06
2022-07-27T11:25:21.503Z,96369.31
2022-07-27T11:27:50.518Z,96375.56
2022-07-27T11:30:23.542Z,96376.25
2022-07-27T11:32:52.344Z,96371.44
2022-07-27T11:35:21.324Z,96375.47
2022-07-27T11:38:02.353Z,96372.69
2022-07-27T11:41:12.823Z,96377.59
2022-07-27T11:43:36.962Z,96375.59
2022-07-27T11:46:13.715Z,96372.06
2022-07-27T11:51:39.603Z,96361.50
2022-07-27T11:54:12.389Z,96373.06
2022-07-27T11:56:44.361Z,96357.34
2022-07-27T11:59:19.618Z,96362.38
2022-07-27T12:01:51.102Z,96353.50
2022-07-27T12:04:25.569Z,96347.25
2022-07-27T12:07:03.159Z,96345.72
2022-07-27T12:09:38.076Z,96353.22
2022-07-27T12:12:15.811Z,96347.81
2022-07-27T12:14:47.461Z,96357.78
2022-07-27T12:17:22.040Z,96353.06
2022-07-27T12:20:00.417Z,96352.22
2022-07-27T12:22:32.613Z,96357.00
2022-07-27T12:25:12.662Z,96356.09
2022-07-27T12:27:57.366Z,96355.72
2022-07-27T12:30:31.423Z,96362.03
2022-07-27T12:33:00.971Z,96356.31
2022-07-27T12:35:37.288Z,96349.47
2022-07-27T12:38:09.273Z,96349.91
2022-07-27T12:40:47.038Z,96357.41
2022-07-27T12:43:18.271Z,96350.59
2022-07-27T12:45:48.848Z,96353.72
2022-07-27T12:48:19.827Z,96354.03
2022-07-27T12:50:50.455Z,96352.25
2022-07-27T12:53:18.880Z,96352.09
2022-07-27T12:55:48.943Z,96350.69
2022-07-27T12:58:17.697Z,96348.75
2022-07-27T13:00:46.056Z,96350.97
2022-07-27T13:03:15.479Z,96343.47
2022-07-27T13:05:43.941Z,96338.13
2022-07-27T13:08:13.017Z,96339.00
2022-07-27T13:10:45.911Z,96340.66
2022-07-27T13:13:16.636Z,96342.78
2022-07-27T13:15:45.031Z,96337.13
2022-07-27T13:18:13.910Z,96337.47
2022-07-27T13:20:43.236Z,96335.25
2022-07-27T13:23:12.189Z,96330.97
2022-07-27T13:25:43.374Z,96326.75
2022-07-27T13:28:13.047Z,96340.09
2022-07-27T13:30:43.007Z,96338.28
2022-07-27T13:33:11.788Z,96330.34
2022-07-27T13:35:40.726Z,96334.56
2022-07-27T13:38:13.151Z,96338.84
2022-07-27T13:40:45.119Z,96333.56
2022-07-27T13:43:13.468Z,96329.16
2022-07-27T13:45:43.938Z,96332.75
2022-07-27T13:48:13.215Z,96333.41
2022-07-27T13:50:42.470Z,96329.16
2022-07-27T13:53:15.442Z,96319.41
2022-07-27T13:55:45.536Z,96327.09
2022-07-27T13:58:14.238Z,96329.41
2022-07-27T14:00:44.643Z,96326.06
2022-07-27T14:03:13.052Z,96315.94
2022-07-27T14:05:49.468Z,96322.09
2022-07-27T14:08:18.828Z,96319.50
2022-07-27T14:10:47.929Z,96313.16
2022-07-27T14:13:17.678Z,96311.69
2022-07-27T14:15:53.602Z,96316.00
2022-07-27T14:18:25.927Z,96318.81
2022-07-27T14:20:54.752Z,96319.13
2022-07-27T14:23:23.455Z,96314.09
2022-07-27T14:25:53.119Z,96308.34
2022-07-27T14:28:21.900Z,96314.81
2022-07-27T14:30:53.296Z,96310.56
2022-07-27T14:33:21.749Z,96307.31
2022-07-27T14:35:50.498Z,96313.22
2022-07-27T14:38:27.153Z,96310.16
2022-07-27T14:41:01.979Z,96308.88
2022-07-27T14:43:30.788Z,96303.47
2022-07-27T14:46:00.710Z,96306.22
2022-07-27T14:49:03.297Z,96300.75
2022-07-27T14:51:18.217Z,96304.34
2022-07-27T14:53:47.493Z,96299.31
2022-07-27T14:56:16.004Z,96299.25
2022-07-27T14:58:45.372Z,96303.84
2022-07-27T15:01:17.034Z,96300.22
2022-07-27T15:03:47.440Z,96304.25
2022-07-27T15:06:16.235Z,96294.53
2022-07-27T15:08:45.504Z,96298.34
2022-07-27T15:11:13.977Z,96300.41
2022-07-27T15:13:42.453Z,96297.25
2022-07-27T15:16:11.964Z,96293.41
2022-07-27T15:18:43.148Z,96283.97
2022-07-27T15:21:14.547Z,96291.66
2022-07-27T15:23:44.837Z,96293.28
2022-07-27T15:26:13.929Z,96302.13
2022-07-27T15:28:43.633Z,96291.88
2022-07-27T15:31:13.814Z,96296.84
2022-07-27T15:33:43.676Z,96293.50
2022-07-27T15:36:31.634Z,96300.84
2022-07-27T15:39:01.079Z,96298.56
2022-07-27T15:41:29.856Z,96301.44
2022-07-27T15:43:59.610Z,96296.97
2022-07-27T15:46:28.881Z,96305.59
2022-07-27T15:48:59.269Z,96302.84
2022-07-27T15:51:28.825Z,96305.03
2022-07-27T15:53:57.404Z,96300.38
2022-07-27T15:56:26.400Z,96298.84
2022-07-27T15:58:55.318Z,96300.06
2022-07-27T16:01:23.685Z,96288.25
2022-07-27T16:04:06.560Z,96283.69
2022-07-27T16:06:39.136Z,96300.31
2022-07-27T16:09:10.478Z,96294.00
2022-07-27T16:11:39.326Z,96292.88
2022-07-27T16:14:08.371Z,96289.72
2022-07-27T16:16:37.511Z,96294.53
2022-07-27T16:19:13.139Z,96289.31
2022-07-27T16:21:54.968Z,96284.88
2022-07-27T16:24:25.785Z,96290.97
2022-07-27T16:26:55.052Z,96288.69
2022-07-27T16:29:23.456Z,96265.66
2022-07-27T16:31:55.159Z,96285.25
2022-07-27T16:34:25.014Z,96290.84
2022-07-27T16:36:54.308Z,96282.53
2022-07-27T16:39:22.890Z,96286.53
2022-07-27T16:41:52.349Z,96285.47
2022-07-27T16:44:21.762Z,96291.38
2022-07-27T16:46:51.255Z,96283.94
2022-07-27T16:49:19.716Z,96288.53
2022-07-27T16:51:49.762Z,96282.31
2022-07-27T16:54:18.221Z,96287.09
2022-07-27T16:56:47.379Z,96289.63
2022-07-27T16:59:16.319Z,96295.78
2022-07-27T17:01:45.859Z,96298.53
2022-07-27T17:04:14.309Z,96287.22
2022-07-27T17:06:43.620Z,96292.94
2022-07-27T17:09:14.161Z,96292.22
2022-07-27T17:11:42.851Z,96291.09
2022-07-27T17:14:14.553Z,96300.44
2022-07-27T17:16:44.900Z,96299.94
2022-07-27T17:19:22.066Z,96300.28
2022-07-27T17:21:50.436Z,96299.16
2022-07-27T17:24:20.864Z,96306.28
2022-07-27T17:26:49.355Z,96316.34
2022-07-27T17:29:18.695Z,96314.75
2022-07-27T17:31:47.172Z,96322.13
2022-07-27T17:34:16.571Z,96315.69
2022-07-27T17:36:44.953Z,96327.25
2022-07-27T17:39:15.427Z,96323.00
2022-07-27T17:41:45.529Z,96309.03
2022-07-27T17:44:14.703Z,96327.31
2022-07-27T17:46:43.110Z,96322.22
2022-07-27T17:49:12.619Z,96327.41
2022-07-27T17:51:41.249Z,96329.50
2022-07-27T17:54:09.705Z,96336.53
2022-07-27T17:56:38.802Z,96343.09
2022-07-27T17:59:36.119Z,96348.81
2022-07-27T18:01:59.906Z,96342.13
2022-07-27T18:04:28.485Z,96337.59
2022-07-27T18:06:57.801Z,96345.03
2022-07-27T18:09:26.203Z,96342.72
2022-07-27T18:11:55.411Z,96339.75
2022-07-27T18:14:25.165Z,96352.00
2022-07-27T18:16:54.635Z,96345.84
2022-07-27T18:19:22.947Z,96347.56
2022-07-27T18:21:51.524Z,96356.38
2022-07-27T18:24:23.663Z,96356.47
2022-07-27T18:26:55.468Z,96360.94
2022-07-27T18:29:25.588Z,96357.47
2022-07-27T18:31:54.357Z,96357.22
2022-07-27T18:34:22.761Z,96360.69
2022-07-27T18:36:51.732Z,96358.13
2022-07-27T18:39:23.808Z,96373.69
2022-07-27T18:42:04.160Z,96376.53
2022-07-27T18:44:38.717Z,96365.28
2022-07-27T18:47:08.332Z,96360.91
2022-07-27T18:49:36.820Z,96367.78
2022-07-27T18:52:06.676Z,96364.41
2022-07-27T18:54:35.144Z,96374.38
2022-07-27T18:57:03.879Z,96381.63
2022-07-27T18:59:35.492Z,96379.03
2022-07-27T19:02:10.351Z,96378.41
2022-07-27T19:04:38.756Z,96381.88
2022-07-27T19:07:10.439Z,96378.47
2022-07-27T19:09:38.872Z,96385.31
2022-07-27T19:12:09.762Z,96391.84
2022-07-27T19:14:40.059Z,96382.78
2022-07-27T19:17:14.613Z,96396.63
2022-07-27T19:19:43.830Z,96403.50
2022-07-27T19:22:12.284Z,96396.88
2022-07-27T19:24:41.099Z,96401.91
2022-07-27T19:27:09.476Z,96405.34
2022-07-27T19:29:41.469Z,96415.16
2022-07-27T19:32:10.916Z,96422.97
2022-07-27T19:34:40.212Z,96420.06
2022-07-27T19:37:08.996Z,96430.00
2022-07-27T19:39:59.884Z,96426.59
2022-07-27T19:42:27.442Z,96416.03
2022-07-27T19:44:57.909Z,96424.00
2022-07-27T19:47:26.473Z,96429.88
2022-07-27T19:49:56.219Z,96432.00
2022-07-27T19:52:24.949Z,96428.78
2022-07-27T19:54:53.358Z,96431.38
2022-07-27T19:57:22.631Z,96432.69
2022-07-27T19:59:54.965Z,96431.41
2022-07-27T20:02:27.191Z,96414.50
2022-07-27T20:04:55.599Z,96431.56
2022-07-27T20:07:24.442Z,96433.06
2022-07-27T20:09:52.998Z,96438.91
2022-07-27T20:12:22.841Z,96434.47
2022-07-27T20:14:51.229Z,96439.22
2022-07-27T20:17:20.016Z,96443.13
2022-07-27T20:19:49.728Z,96445.22
2022-07-27T20:22:18.907Z,96456.16
2022-07-27T20:24:47.815Z,96459.53
2022-07-27T20:27:16.255Z,96457.09
2022-07-27T20:29:45.469Z,96461.97
2022-07-27T20:32:13.796Z,96465.88
2022-07-27T20:34:42.632Z,96465.06
2022-07-27T20:37:13.052Z,96463.78
2022-07-27T20:39:41.488Z,96468.97
2022-07-27T20:42:11.122Z,96472.06
2022-07-27T20:44:39.552Z,96468.44
2022-07-27T20:47:09.381Z,96470.56
2022-07-27T20:49:37.920Z,96465.19
2022-07-27T20:52:07.991Z,96469.53
2022-07-27T20:54:38.356Z,96470.47
2022-07-27T20:57:07.573Z,96457.66
2022-07-27T20:59:36.083Z,96456.00
2022-07-27T21:02:04.780Z,96461.03
2022-07-27T21:04:33.200Z,96458.41
2022-07-27T21:07:01.546Z,96461.50
2022-07-27T21:09:32.044Z,96460.69
2022-07-27T21:12:01.908Z,96461.66
2022-07-27T21:14:31.086Z,96466.50
2022-07-27T21:16:59.550Z,96465.69
2022-07-27T21:19:28.858Z,96463.06
2022-07-27T21:21:57.216Z,96460.28
2022-07-27T21:24:26.497Z,96462.03
2022-07-27T21:26:54.980Z,96447.06
2022-07-27T21:29:28.172Z,96459.44
2022-07-27T21:32:00.237Z,96462.81
2022-07-27T21:34:29.444Z,96468.84
2022-07-27T21:36:57.841Z,96477.13
2022-07-27T21:39:29.302Z,96472.38
2022-07-27T21:42:01.941Z,96466.59
2022-07-27T21:44:32.820Z,96473.38
2022-07-27T21:47:01.166Z,96471.56
2022-07-27T21:49:34.566Z,96470.75
2022-07-27T21:52:03.248Z,96474.06
2022-07-27T21:54:32.337Z,96478.13
2022-07-27T21:57:00.681Z,96472.50
2022-07-27T21:59:29.675Z,96479.16
2022-07-27T22:02:00.871Z,96481.13
2022-07-27T22:04:30.270Z,96475.91
2022-07-27T22:06:58.757Z,96482.88
2022-07-27T22:09:27.128Z,96469.59
2022-07-27T22:11:56.594Z,96483.97
2022-07-27T22:14:25.084Z,96485.44
2022-07-27T22:16:54.328Z,96483.59
2022-07-27T22:19:24.378Z,96485.06
2022-07-27T22:21:53.475Z,96484.69
2022-07-27T22:24:22.046Z,96479.78
2022-07-27T22:26:51.224Z,96471.84
2022-07-27T22:29:19.752Z,96479.09
2022-07-27T22:31:49.084Z,96488.00
2022-07-27T22:34:17.738Z,96487.38
2022-07-27T22:36:48.387Z,96485.50
2022-07-27T22:39:16.944Z,96480.72
2022-07-27T22:41:46.064Z,96488.22
2022-07-27T22:44:15.886Z,96489.44
2022-07-27T22:46:48.484Z,96488.63
2022-07-27T22:49:16.962Z,96485.38
2022-07-27T22:51:50.306Z,96485.63
2022-07-27T22:54:23.531Z,96483.78
2022-07-27T22:56:53.743Z,96482.56
2022-07-27T22:59:22.115Z,96485.63
2022-07-27T23:01:51.386Z,96482.97
2022-07-27T23:04:19.880Z,96481.94
2022-07-27T23:06:49.096Z,96486.94
2022-07-27T23:09:17.559Z,96488.06
2022-07-27T23:11:48.022Z,96493.81
2022-07-27T23:14:17.729Z,96482.34
2022-07-27T23:16:46.633Z,96482.44
2022-07-27T23:19:15.776Z,96486.50
2022-07-27T23:21:44.172Z,96484.56
2022-07-27T23:24:14.487Z,96484.28
2022-07-27T23:26:43.332Z,96480.50
2022-07-27T23:29:13.879Z,96481.31
2022-07-27T23:31:42.493Z,96478.38
2022-07-27T23:34:12.066Z,96478.06
2022-07-27T23:36:42.963Z,96467.13
2022-07-27T23:39:12.225Z,96472.75
2022-07-27T23:41:41.105Z,96468.34
2022-07-27T23:44:09.456Z,96463.97
2022-07-27T23:46:40.013Z,96463.78
2022-07-27T23:49:08.463Z,96472.03
2022-07-27T23:51:37.700Z,96475.19
2022-07-27T23:54:06.204Z,96475.59
2022-07-27T23:56:36.079Z,96477.31
2022-07-27T23:59:05.363Z,96467.41
